sensor_id;sensor_type;location;lat;lon;timestamp;P1;durP1;ratioP1;P2;durP2;ratioP2
11092;SDS011;5600;50.864;6.102;2023-04-09T00:02:41;85.03;;;21.43;;
11092;SDS011;5600;50.864;6.102;2023-04-09T00:05:42;101.40;;;21.07;;
11092;SDS011;5600;50.864;6.102;2023-04-09T00:08:42;109.57;;;22.57;;
11092;SDS011;5600;50.864;6.102;2023-04-09T00:11:43;67.53;;;20.80;;
11092;SDS011;5600;50.864;6.102;2023-04-09T00:14:43;86.47;;;21.13;;
11092;SDS011;5600;50.864;6.102;2023-04-09T00:17:44;78.97;;;20.87;;
11092;SDS011;5600;50.864;6.102;2023-04-09T00:20:45;97.70;;;21.60;;
11092;SDS011;5600;50.864;6.102;2023-04-09T00:23:45;91.30;;;21.60;;
11092;SDS011;5600;50.864;6.102;2023-04-09T00:26:46;89.77;;;21.73;;
11092;SDS011;5600;50.864;6.102;2023-04-09T00:29:48;100.70;;;22.07;;
11092;SDS011;5600;50.864;6.102;2023-04-09T00:32:49;92.70;;;20.87;;
11092;SDS011;5600;50.864;6.102;2023-04-09T00:35:49;90.67;;;21.90;;
11092;SDS011;5600;50.864;6.102;2023-04-09T00:38:50;89.67;;;20.60;;
11092;SDS011;5600;50.864;6.102;2023-04-09T00:41:56;83.67;;;20.87;;
11092;SDS011;5600;50.864;6.102;2023-04-09T00:44:58;93.37;;;20.03;;
11092;SDS011;5600;50.864;6.102;2023-04-09T00:47:59;85.73;;;20.73;;
11092;SDS011;5600;50.864;6.102;2023-04-09T00:51:01;108.50;;;22.97;;
11092;SDS011;5600;50.864;6.102;2023-04-09T00:54:01;80.90;;;20.90;;
11092;SDS011;5600;50.864;6.102;2023-04-09T00:57:02;100.33;;;21.10;;
11092;SDS011;5600;50.864;6.102;2023-04-09T01:00:03;90.53;;;22.00;;
11092;SDS011;5600;50.864;6.102;2023-04-09T01:03:06;92.37;;;22.13;;
11092;SDS011;5600;50.864;6.102;2023-04-09T01:06:19;93.47;;;23.10;;
11092;SDS011;5600;50.864;6.102;2023-04-09T01:09:26;96.73;;;23.67;;
11092;SDS011;5600;50.864;6.102;2023-04-09T01:12:41;88.97;;;22.20;;
11092;SDS011;5600;50.864;6.102;2023-04-09T01:15:56;74.40;;;19.67;;
11092;SDS011;5600;50.864;6.102;2023-04-09T01:19:01;86.83;;;22.03;;
11092;SDS011;5600;50.864;6.102;2023-04-09T01:22:13;89.10;;;20.83;;
11092;SDS011;5600;50.864;6.102;2023-04-09T01:25:42;82.47;;;21.43;;
11092;SDS011;5600;50.864;6.102;2023-04-09T01:28:45;70.80;;;19.57;;
11092;SDS011;5600;50.864;6.102;2023-04-09T01:31:52;66.83;;;20.33;;
11092;SDS011;5600;50.864;6.102;2023-04-09T01:34:54;64.97;;;20.90;;
11092;SDS011;5600;50.864;6.102;2023-04-09T01:37:55;85.80;;;20.50;;
11092;SDS011;5600;50.864;6.102;2023-04-09T01:40:58;75.47;;;20.63;;
11092;SDS011;5600;50.864;6.102;2023-04-09T01:44:01;77.93;;;21.93;;
11092;SDS011;5600;50.864;6.102;2023-04-09T01:47:03;84.27;;;21.10;;
11092;SDS011;5600;50.864;6.102;2023-04-09T01:50:04;68.57;;;19.67;;
11092;SDS011;5600;50.864;6.102;2023-04-09T01:53:05;84.50;;;20.40;;
11092;SDS011;5600;50.864;6.102;2023-04-09T01:56:07;76.67;;;19.73;;
11092;SDS011;5600;50.864;6.102;2023-04-09T01:59:08;88.33;;;21.30;;
11092;SDS011;5600;50.864;6.102;2023-04-09T02:02:11;92.97;;;20.90;;
11092;SDS011;5600;50.864;6.102;2023-04-09T02:05:17;107.43;;;20.67;;
11092;SDS011;5600;50.864;6.102;2023-04-09T02:08:22;102.10;;;20.87;;
11092;SDS011;5600;50.864;6.102;2023-04-09T02:11:24;102.80;;;21.57;;
11092;SDS011;5600;50.864;6.102;2023-04-09T02:14:27;88.63;;;20.67;;
11092;SDS011;5600;50.864;6.102;2023-04-09T02:17:31;90.30;;;19.60;;
11092;SDS011;5600;50.864;6.102;2023-04-09T02:20:32;85.13;;;20.97;;
11092;SDS011;5600;50.864;6.102;2023-04-09T02:23:32;84.57;;;21.20;;
11092;SDS011;5600;50.864;6.102;2023-04-09T02:26:34;88.23;;;21.57;;
11092;SDS011;5600;50.864;6.102;2023-04-09T02:29:34;92.07;;;21.00;;
11092;SDS011;5600;50.864;6.102;2023-04-09T02:32:35;89.23;;;20.30;;
11092;SDS011;5600;50.864;6.102;2023-04-09T02:35:36;89.97;;;21.57;;
11092;SDS011;5600;50.864;6.102;2023-04-09T02:38:36;74.77;;;19.80;;
11092;SDS011;5600;50.864;6.102;2023-04-09T02:41:39;84.73;;;19.57;;
11092;SDS011;5600;50.864;6.102;2023-04-09T02:44:40;104.50;;;20.83;;
11092;SDS011;5600;50.864;6.102;2023-04-09T02:47:40;104.37;;;21.53;;
11092;SDS011;5600;50.864;6.102;2023-04-09T02:50:41;80.67;;;19.47;;
11092;SDS011;5600;50.864;6.102;2023-04-09T02:53:42;154.93;;;23.00;;
11092;SDS011;5600;50.864;6.102;2023-04-09T02:56:44;79.57;;;20.53;;
11092;SDS011;5600;50.864;6.102;2023-04-09T02:59:45;74.57;;;18.37;;
11092;SDS011;5600;50.864;6.102;2023-04-09T03:02:46;76.10;;;18.10;;
11092;SDS011;5600;50.864;6.102;2023-04-09T03:05:46;71.63;;;19.57;;
11092;SDS011;5600;50.864;6.102;2023-04-09T03:08:47;64.27;;;18.50;;
11092;SDS011;5600;50.864;6.102;2023-04-09T03:11:47;72.27;;;19.10;;
11092;SDS011;5600;50.864;6.102;2023-04-09T03:14:48;81.77;;;19.93;;
11092;SDS011;5600;50.864;6.102;2023-04-09T03:17:49;82.10;;;19.80;;
11092;SDS011;5600;50.864;6.102;2023-04-09T03:20:50;100.03;;;22.53;;
11092;SDS011;5600;50.864;6.102;2023-04-09T03:23:50;83.63;;;19.87;;
11092;SDS011;5600;50.864;6.102;2023-04-09T03:26:51;85.90;;;19.17;;
11092;SDS011;5600;50.864;6.102;2023-04-09T03:29:54;116.27;;;21.40;;
11092;SDS011;5600;50.864;6.102;2023-04-09T03:32:57;78.87;;;19.43;;
11092;SDS011;5600;50.864;6.102;2023-04-09T03:35:59;87.37;;;20.53;;
11092;SDS011;5600;50.864;6.102;2023-04-09T03:39:21;95.07;;;19.90;;
11092;SDS011;5600;50.864;6.102;2023-04-09T03:42:22;102.50;;;21.43;;
11092;SDS011;5600;50.864;6.102;2023-04-09T03:45:23;81.00;;;21.67;;
11092;SDS011;5600;50.864;6.102;2023-04-09T03:48:26;149.50;;;24.00;;
11092;SDS011;5600;50.864;6.102;2023-04-09T03:51:28;95.27;;;21.57;;
11092;SDS011;5600;50.864;6.102;2023-04-09T03:54:32;92.70;;;21.23;;
11092;SDS011;5600;50.864;6.102;2023-04-09T03:57:33;91.80;;;20.63;;
11092;SDS011;5600;50.864;6.102;2023-04-09T04:00:35;84.23;;;20.93;;
11092;SDS011;5600;50.864;6.102;2023-04-09T04:03:57;92.67;;;20.97;;
11092;SDS011;5600;50.864;6.102;2023-04-09T04:07:02;99.20;;;24.20;;
11092;SDS011;5600;50.864;6.102;2023-04-09T04:10:13;96.47;;;22.07;;
11092;SDS011;5600;50.864;6.102;2023-04-09T04:13:18;98.43;;;22.87;;
11092;SDS011;5600;50.864;6.102;2023-04-09T04:16:25;97.60;;;23.23;;
11092;SDS011;5600;50.864;6.102;2023-04-09T04:19:26;98.60;;;23.43;;
11092;SDS011;5600;50.864;6.102;2023-04-09T04:22:28;99.83;;;22.13;;
11092;SDS011;5600;50.864;6.102;2023-04-09T04:25:33;96.17;;;21.83;;
11092;SDS011;5600;50.864;6.102;2023-04-09T04:28:34;77.47;;;20.60;;
11092;SDS011;5600;50.864;6.102;2023-04-09T04:31:40;77.90;;;19.97;;
11092;SDS011;5600;50.864;6.102;2023-04-09T04:34:40;78.23;;;20.03;;
11092;SDS011;5600;50.864;6.102;2023-04-09T04:37:53;73.03;;;21.90;;
11092;SDS011;5600;50.864;6.102;2023-04-09T04:40:55;86.60;;;21.40;;
11092;SDS011;5600;50.864;6.102;2023-04-09T04:43:57;80.50;;;21.10;;
11092;SDS011;5600;50.864;6.102;2023-04-09T04:46:59;83.40;;;19.87;;
11092;SDS011;5600;50.864;6.102;2023-04-09T04:49:59;75.73;;;19.23;;
11092;SDS011;5600;50.864;6.102;2023-04-09T04:53:01;88.57;;;19.00;;
11092;SDS011;5600;50.864;6.102;2023-04-09T04:56:11;62.57;;;18.43;;
11092;SDS011;5600;50.864;6.102;2023-04-09T04:59:22;78.10;;;20.13;;
11092;SDS011;5600;50.864;6.102;2023-04-09T05:02:32;87.57;;;20.17;;
11092;SDS011;5600;50.864;6.102;2023-04-09T05:05:49;76.00;;;21.10;;
11092;SDS011;5600;50.864;6.102;2023-04-09T05:08:50;78.37;;;20.90;;
11092;SDS011;5600;50.864;6.102;2023-04-09T05:11:51;50.37;;;18.13;;
11092;SDS011;5600;50.864;6.102;2023-04-09T05:14:54;81.87;;;20.40;;
11092;SDS011;5600;50.864;6.102;2023-04-09T05:17:55;80.97;;;20.83;;
11092;SDS011;5600;50.864;6.102;2023-04-09T05:20:57;80.73;;;20.43;;
11092;SDS011;5600;50.864;6.102;2023-04-09T05:24:02;75.40;;;19.17;;
11092;SDS011;5600;50.864;6.102;2023-04-09T05:27:05;93.63;;;21.07;;
11092;SDS011;5600;50.864;6.102;2023-04-09T05:30:06;90.20;;;20.23;;
11092;SDS011;5600;50.864;6.102;2023-04-09T05:33:08;93.57;;;19.37;;
11092;SDS011;5600;50.864;6.102;2023-04-09T05:36:13;75.33;;;19.00;;
11092;SDS011;5600;50.864;6.102;2023-04-09T05:39:15;67.03;;;18.60;;
11092;SDS011;5600;50.864;6.102;2023-04-09T05:42:17;72.60;;;19.87;;
11092;SDS011;5600;50.864;6.102;2023-04-09T05:45:30;96.47;;;21.40;;
11092;SDS011;5600;50.864;6.102;2023-04-09T05:48:33;107.80;;;22.23;;
11092;SDS011;5600;50.864;6.102;2023-04-09T05:51:35;76.57;;;21.20;;
11092;SDS011;5600;50.864;6.102;2023-04-09T05:54:37;82.03;;;20.20;;
11092;SDS011;5600;50.864;6.102;2023-04-09T05:57:41;70.10;;;19.13;;
11092;SDS011;5600;50.864;6.102;2023-04-09T06:00:43;85.00;;;19.97;;
11092;SDS011;5600;50.864;6.102;2023-04-09T06:03:44;70.63;;;19.73;;
11092;SDS011;5600;50.864;6.102;2023-04-09T06:06:45;79.17;;;20.60;;
11092;SDS011;5600;50.864;6.102;2023-04-09T06:09:46;73.13;;;19.20;;
11092;SDS011;5600;50.864;6.102;2023-04-09T06:12:47;80.23;;;21.77;;
11092;SDS011;5600;50.864;6.102;2023-04-09T06:15:48;97.70;;;25.43;;
11092;SDS011;5600;50.864;6.102;2023-04-09T06:18:49;89.70;;;25.13;;
11092;SDS011;5600;50.864;6.102;2023-04-09T06:21:53;82.53;;;21.80;;
11092;SDS011;5600;50.864;6.102;2023-04-09T06:24:53;92.90;;;24.17;;
11092;SDS011;5600;50.864;6.102;2023-04-09T06:27:54;73.77;;;22.20;;
11092;SDS011;5600;50.864;6.102;2023-04-09T06:30:56;96.57;;;26.27;;
11092;SDS011;5600;50.864;6.102;2023-04-09T06:33:57;85.70;;;25.80;;
11092;SDS011;5600;50.864;6.102;2023-04-09T06:36:57;79.60;;;25.50;;
11092;SDS011;5600;50.864;6.102;2023-04-09T06:39:58;95.30;;;25.53;;
11092;SDS011;5600;50.864;6.102;2023-04-09T06:42:59;100.43;;;26.50;;
11092;SDS011;5600;50.864;6.102;2023-04-09T06:46:10;86.47;;;27.83;;
11092;SDS011;5600;50.864;6.102;2023-04-09T06:49:12;101.10;;;26.03;;
11092;SDS011;5600;50.864;6.102;2023-04-09T06:52:13;132.10;;;27.47;;
11092;SDS011;5600;50.864;6.102;2023-04-09T06:55:13;94.57;;;28.17;;
11092;SDS011;5600;50.864;6.102;2023-04-09T06:58:14;106.63;;;29.43;;
11092;SDS011;5600;50.864;6.102;2023-04-09T07:01:15;117.73;;;32.60;;
11092;SDS011;5600;50.864;6.102;2023-04-09T07:04:16;104.17;;;31.13;;
11092;SDS011;5600;50.864;6.102;2023-04-09T07:07:17;97.23;;;30.73;;
11092;SDS011;5600;50.864;6.102;2023-04-09T07:10:19;117.47;;;32.57;;
11092;SDS011;5600;50.864;6.102;2023-04-09T07:13:20;107.10;;;31.50;;
11092;SDS011;5600;50.864;6.102;2023-04-09T07:16:21;127.50;;;32.23;;
11092;SDS011;5600;50.864;6.102;2023-04-09T07:19:22;133.60;;;33.77;;
11092;SDS011;5600;50.864;6.102;2023-04-09T07:22:24;97.13;;;31.30;;
11092;SDS011;5600;50.864;6.102;2023-04-09T07:25:25;127.67;;;31.63;;
11092;SDS011;5600;50.864;6.102;2023-04-09T07:28:27;119.03;;;28.00;;
11092;SDS011;5600;50.864;6.102;2023-04-09T07:31:28;121.77;;;29.33;;
11092;SDS011;5600;50.864;6.102;2023-04-09T07:34:28;175.10;;;33.10;;
11092;SDS011;5600;50.864;6.102;2023-04-09T07:37:29;100.87;;;29.47;;
11092;SDS011;5600;50.864;6.102;2023-04-09T07:40:30;114.83;;;29.47;;
11092;SDS011;5600;50.864;6.102;2023-04-09T07:43:33;121.60;;;27.20;;
11092;SDS011;5600;50.864;6.102;2023-04-09T07:46:33;111.03;;;26.90;;
11092;SDS011;5600;50.864;6.102;2023-04-09T07:49:35;94.97;;;24.20;;
11092;SDS011;5600;50.864;6.102;2023-04-09T07:52:36;130.73;;;27.20;;
11092;SDS011;5600;50.864;6.102;2023-04-09T07:55:38;123.88;;;24.55;;
11092;SDS011;5600;50.864;6.102;2023-04-09T07:58:39;114.68;;;21.83;;
11092;SDS011;5600;50.864;6.102;2023-04-09T08:01:40;120.93;;;23.80;;
11092;SDS011;5600;50.864;6.102;2023-04-09T08:04:41;143.48;;;24.60;;
11092;SDS011;5600;50.864;6.102;2023-04-09T08:07:41;99.68;;;22.17;;
11092;SDS011;5600;50.864;6.102;2023-04-09T08:10:42;110.93;;;23.27;;
11092;SDS011;5600;50.864;6.102;2023-04-09T08:13:43;93.00;;;20.90;;
11092;SDS011;5600;50.864;6.102;2023-04-09T08:16:44;63.88;;;17.52;;
11092;SDS011;5600;50.864;6.102;2023-04-09T08:19:46;81.20;;;19.90;;
11092;SDS011;5600;50.864;6.102;2023-04-09T08:22:48;68.20;;;18.40;;
11092;SDS011;5600;50.864;6.102;2023-04-09T08:25:49;61.08;;;16.15;;
11092;SDS011;5600;50.864;6.102;2023-04-09T08:28:49;80.55;;;16.17;;
11092;SDS011;5600;50.864;6.102;2023-04-09T08:31:51;84.85;;;17.98;;
11092;SDS011;5600;50.864;6.102;2023-04-09T08:34:51;96.53;;;15.95;;
11092;SDS011;5600;50.864;6.102;2023-04-09T08:37:52;57.65;;;13.73;;
11092;SDS011;5600;50.864;6.102;2023-04-09T08:40:53;73.22;;;15.25;;
11092;SDS011;5600;50.864;6.102;2023-04-09T08:43:54;90.82;;;16.27;;
11092;SDS011;5600;50.864;6.102;2023-04-09T08:46:56;83.75;;;14.30;;
11092;SDS011;5600;50.864;6.102;2023-04-09T08:49:58;71.90;;;14.70;;
11092;SDS011;5600;50.864;6.102;2023-04-09T08:53:00;83.85;;;13.85;;
11092;SDS011;5600;50.864;6.102;2023-04-09T08:56:02;60.00;;;13.43;;
11092;SDS011;5600;50.864;6.102;2023-04-09T08:59:03;106.82;;;14.43;;
11092;SDS011;5600;50.864;6.102;2023-04-09T09:02:10;131.27;;;15.40;;
11092;SDS011;5600;50.864;6.102;2023-04-09T09:05:11;69.22;;;14.38;;
11092;SDS011;5600;50.864;6.102;2023-04-09T09:08:13;75.55;;;14.07;;
11092;SDS011;5600;50.864;6.102;2023-04-09T09:11:25;86.35;;;15.13;;
11092;SDS011;5600;50.864;6.102;2023-04-09T09:14:27;78.68;;;13.60;;
11092;SDS011;5600;50.864;6.102;2023-04-09T09:17:33;95.00;;;14.75;;
11092;SDS011;5600;50.864;6.102;2023-04-09T09:20:51;81.90;;;14.27;;
11092;SDS011;5600;50.864;6.102;2023-04-09T09:24:17;60.67;;;11.98;;
11092;SDS011;5600;50.864;6.102;2023-04-09T09:27:34;65.22;;;12.90;;
11092;SDS011;5600;50.864;6.102;2023-04-09T09:30:38;72.05;;;12.07;;
11092;SDS011;5600;50.864;6.102;2023-04-09T09:33:40;90.47;;;12.65;;
11092;SDS011;5600;50.864;6.102;2023-04-09T09:36:41;87.30;;;11.75;;
11092;SDS011;5600;50.864;6.102;2023-04-09T09:39:44;96.80;;;11.73;;
11092;SDS011;5600;50.864;6.102;2023-04-09T09:42:53;79.85;;;9.52;;
11092;SDS011;5600;50.864;6.102;2023-04-09T09:45:56;50.38;;;8.68;;
11092;SDS011;5600;50.864;6.102;2023-04-09T09:48:57;65.82;;;8.77;;
11092;SDS011;5600;50.864;6.102;2023-04-09T09:51:58;88.93;;;8.68;;
11092;SDS011;5600;50.864;6.102;2023-04-09T09:55:01;80.97;;;8.63;;
11092;SDS011;5600;50.864;6.102;2023-04-09T09:58:15;45.80;;;6.80;;
11092;SDS011;5600;50.864;6.102;2023-04-09T10:01:18;45.55;;;6.43;;
11092;SDS011;5600;50.864;6.102;2023-04-09T10:04:20;46.47;;;6.47;;
11092;SDS011;5600;50.864;6.102;2023-04-09T10:07:23;80.28;;;9.05;;
11092;SDS011;5600;50.864;6.102;2023-04-09T10:10:24;49.85;;;6.90;;
11092;SDS011;5600;50.864;6.102;2023-04-09T10:16:34;114.82;;;9.75;;
11092;SDS011;5600;50.864;6.102;2023-04-09T10:19:41;74.32;;;8.23;;
11092;SDS011;5600;50.864;6.102;2023-04-09T10:22:46;72.15;;;8.13;;
11092;SDS011;5600;50.864;6.102;2023-04-09T10:25:49;80.35;;;8.40;;
11092;SDS011;5600;50.864;6.102;2023-04-09T10:29:12;62.95;;;7.93;;
11092;SDS011;5600;50.864;6.102;2023-04-09T10:32:19;52.88;;;7.40;;
11092;SDS011;5600;50.864;6.102;2023-04-09T10:35:25;102.95;;;9.75;;
11092;SDS011;5600;50.864;6.102;2023-04-09T10:38:34;75.65;;;7.90;;
11092;SDS011;5600;50.864;6.102;2023-04-09T10:41:35;84.65;;;8.50;;
11092;SDS011;5600;50.864;6.102;2023-04-09T10:44:37;88.60;;;8.07;;
11092;SDS011;5600;50.864;6.102;2023-04-09T10:47:41;101.05;;;8.90;;
11092;SDS011;5600;50.864;6.102;2023-04-09T10:50:43;69.18;;;8.07;;
11092;SDS011;5600;50.864;6.102;2023-04-09T10:53:44;87.88;;;8.50;;
11092;SDS011;5600;50.864;6.102;2023-04-09T11:00:08;59.85;;;7.28;;
11092;SDS011;5600;50.864;6.102;2023-04-09T11:06:12;67.28;;;7.35;;
11092;SDS011;5600;50.864;6.102;2023-04-09T11:09:17;59.83;;;7.45;;
11092;SDS011;5600;50.864;6.102;2023-04-09T11:12:18;64.82;;;7.43;;
11092;SDS011;5600;50.864;6.102;2023-04-09T11:15:19;66.97;;;8.07;;
11092;SDS011;5600;50.864;6.102;2023-04-09T11:18:27;78.07;;;8.00;;
11092;SDS011;5600;50.864;6.102;2023-04-09T11:21:29;64.47;;;7.45;;
11092;SDS011;5600;50.864;6.102;2023-04-09T11:24:43;76.47;;;7.63;;
11092;SDS011;5600;50.864;6.102;2023-04-09T11:27:45;92.10;;;8.75;;
11092;SDS011;5600;50.864;6.102;2023-04-09T11:30:49;64.60;;;6.85;;
11092;SDS011;5600;50.864;6.102;2023-04-09T11:33:50;72.35;;;7.38;;
11092;SDS011;5600;50.864;6.102;2023-04-09T11:36:50;76.18;;;7.20;;
11092;SDS011;5600;50.864;6.102;2023-04-09T11:39:52;72.53;;;7.15;;
11092;SDS011;5600;50.864;6.102;2023-04-09T11:42:54;75.97;;;7.53;;
11092;SDS011;5600;50.864;6.102;2023-04-09T11:45:55;68.57;;;7.57;;
11092;SDS011;5600;50.864;6.102;2023-04-09T11:48:56;102.68;;;8.88;;
11092;SDS011;5600;50.864;6.102;2023-04-09T11:51:58;80.53;;;7.75;;
11092;SDS011;5600;50.864;6.102;2023-04-09T11:55:01;91.47;;;8.48;;
11092;SDS011;5600;50.864;6.102;2023-04-09T11:58:03;73.38;;;7.60;;
11092;SDS011;5600;50.864;6.102;2023-04-09T12:01:04;95.82;;;8.23;;
11092;SDS011;5600;50.864;6.102;2023-04-09T12:04:06;78.47;;;7.75;;
11092;SDS011;5600;50.864;6.102;2023-04-09T12:07:08;98.05;;;8.23;;
11092;SDS011;5600;50.864;6.102;2023-04-09T12:10:09;50.00;;;6.55;;
11092;SDS011;5600;50.864;6.102;2023-04-09T12:13:10;72.60;;;7.38;;
11092;SDS011;5600;50.864;6.102;2023-04-09T12:16:11;100.00;;;8.43;;
11092;SDS011;5600;50.864;6.102;2023-04-09T12:19:12;74.18;;;7.65;;
11092;SDS011;5600;50.864;6.102;2023-04-09T12:22:14;80.20;;;8.05;;
11092;SDS011;5600;50.864;6.102;2023-04-09T12:25:15;50.90;;;6.97;;
11092;SDS011;5600;50.864;6.102;2023-04-09T12:28:16;73.20;;;7.57;;
11092;SDS011;5600;50.864;6.102;2023-04-09T12:31:17;96.35;;;8.23;;
11092;SDS011;5600;50.864;6.102;2023-04-09T12:34:18;65.15;;;7.47;;
11092;SDS011;5600;50.864;6.102;2023-04-09T12:37:19;79.70;;;7.95;;
11092;SDS011;5600;50.864;6.102;2023-04-09T12:40:21;90.43;;;8.15;;
11092;SDS011;5600;50.864;6.102;2023-04-09T12:43:22;75.90;;;7.63;;
11092;SDS011;5600;50.864;6.102;2023-04-09T12:46:23;98.28;;;8.80;;
11092;SDS011;5600;50.864;6.102;2023-04-09T12:49:24;81.07;;;7.68;;
11092;SDS011;5600;50.864;6.102;2023-04-09T12:52:25;75.97;;;6.70;;
11092;SDS011;5600;50.864;6.102;2023-04-09T12:55:27;71.15;;;6.78;;
11092;SDS011;5600;50.864;6.102;2023-04-09T12:58:28;99.22;;;8.27;;
11092;SDS011;5600;50.864;6.102;2023-04-09T13:01:28;87.30;;;7.43;;
11092;SDS011;5600;50.864;6.102;2023-04-09T13:04:29;83.65;;;7.43;;
11092;SDS011;5600;50.864;6.102;2023-04-09T13:07:31;94.55;;;7.75;;
11092;SDS011;5600;50.864;6.102;2023-04-09T13:10:32;72.97;;;6.75;;
11092;SDS011;5600;50.864;6.102;2023-04-09T13:13:33;69.35;;;6.65;;
11092;SDS011;5600;50.864;6.102;2023-04-09T13:16:34;126.25;;;9.65;;
11092;SDS011;5600;50.864;6.102;2023-04-09T13:19:35;78.00;;;7.07;;
11092;SDS011;5600;50.864;6.102;2023-04-09T13:22:37;88.18;;;7.85;;
11092;SDS011;5600;50.864;6.102;2023-04-09T13:25:37;96.15;;;7.97;;
11092;SDS011;5600;50.864;6.102;2023-04-09T13:28:38;88.00;;;7.07;;
11092;SDS011;5600;50.864;6.102;2023-04-09T13:31:40;80.45;;;7.53;;
11092;SDS011;5600;50.864;6.102;2023-04-09T13:34:41;92.85;;;7.70;;
11092;SDS011;5600;50.864;6.102;2023-04-09T13:37:42;104.97;;;8.15;;
11092;SDS011;5600;50.864;6.102;2023-04-09T13:40:42;97.45;;;8.07;;
11092;SDS011;5600;50.864;6.102;2023-04-09T13:43:43;83.60;;;7.65;;
11092;SDS011;5600;50.864;6.102;2023-04-09T13:46:44;91.22;;;8.32;;
11092;SDS011;5600;50.864;6.102;2023-04-09T13:49:45;93.43;;;8.15;;
11092;SDS011;5600;50.864;6.102;2023-04-09T13:52:46;59.47;;;6.75;;
11092;SDS011;5600;50.864;6.102;2023-04-09T13:55:47;81.25;;;8.15;;
11092;SDS011;5600;50.864;6.102;2023-04-09T13:58:48;84.60;;;7.55;;
11092;SDS011;5600;50.864;6.102;2023-04-09T14:01:49;84.30;;;8.00;;
11092;SDS011;5600;50.864;6.102;2023-04-09T14:04:50;111.35;;;8.48;;
11092;SDS011;5600;50.864;6.102;2023-04-09T14:07:51;104.45;;;8.75;;
11092;SDS011;5600;50.864;6.102;2023-04-09T14:10:52;87.63;;;7.90;;
11092;SDS011;5600;50.864;6.102;2023-04-09T14:13:53;69.90;;;7.65;;
11092;SDS011;5600;50.864;6.102;2023-04-09T14:16:54;84.72;;;8.18;;
11092;SDS011;5600;50.864;6.102;2023-04-09T14:19:55;90.85;;;8.52;;
11092;SDS011;5600;50.864;6.102;2023-04-09T14:22:58;90.32;;;8.15;;
11092;SDS011;5600;50.864;6.102;2023-04-09T14:25:59;90.57;;;8.52;;
11092;SDS011;5600;50.864;6.102;2023-04-09T14:29:01;69.70;;;7.45;;
11092;SDS011;5600;50.864;6.102;2023-04-09T14:32:02;69.28;;;7.68;;
11092;SDS011;5600;50.864;6.102;2023-04-09T14:35:03;94.10;;;8.65;;
11092;SDS011;5600;50.864;6.102;2023-04-09T14:38:05;64.97;;;7.47;;
11092;SDS011;5600;50.864;6.102;2023-04-09T14:41:05;87.40;;;8.38;;
11092;SDS011;5600;50.864;6.102;2023-04-09T14:44:06;67.45;;;7.32;;
11092;SDS011;5600;50.864;6.102;2023-04-09T14:47:07;104.53;;;9.05;;
11092;SDS011;5600;50.864;6.102;2023-04-09T14:50:08;61.38;;;6.57;;
11092;SDS011;5600;50.864;6.102;2023-04-09T14:53:10;75.72;;;7.47;;
11092;SDS011;5600;50.864;6.102;2023-04-09T14:56:11;61.05;;;7.10;;
11092;SDS011;5600;50.864;6.102;2023-04-09T14:59:12;57.25;;;6.90;;
11092;SDS011;5600;50.864;6.102;2023-04-09T15:02:13;72.95;;;7.95;;
11092;SDS011;5600;50.864;6.102;2023-04-09T15:05:13;62.17;;;7.18;;
11092;SDS011;5600;50.864;6.102;2023-04-09T15:08:14;54.38;;;6.53;;
11092;SDS011;5600;50.864;6.102;2023-04-09T15:11:15;109.78;;;8.98;;
11092;SDS011;5600;50.864;6.102;2023-04-09T15:14:16;75.38;;;7.40;;
11092;SDS011;5600;50.864;6.102;2023-04-09T15:17:19;81.55;;;7.72;;
11092;SDS011;5600;50.864;6.102;2023-04-09T15:20:20;66.15;;;6.90;;
11092;SDS011;5600;50.864;6.102;2023-04-09T15:23:21;71.57;;;7.30;;
11092;SDS011;5600;50.864;6.102;2023-04-09T15:26:22;70.53;;;7.05;;
11092;SDS011;5600;50.864;6.102;2023-04-09T15:29:22;83.00;;;7.68;;
11092;SDS011;5600;50.864;6.102;2023-04-09T15:32:23;59.70;;;6.57;;
11092;SDS011;5600;50.864;6.102;2023-04-09T15:35:23;75.30;;;6.90;;
11092;SDS011;5600;50.864;6.102;2023-04-09T15:38:28;85.43;;;7.63;;
11092;SDS011;5600;50.864;6.102;2023-04-09T15:41:30;101.07;;;8.20;;
11092;SDS011;5600;50.864;6.102;2023-04-09T15:44:32;78.97;;;7.25;;
11092;SDS011;5600;50.864;6.102;2023-04-09T15:47:34;94.85;;;7.95;;
11092;SDS011;5600;50.864;6.102;2023-04-09T15:50:35;94.10;;;7.95;;
11092;SDS011;5600;50.864;6.102;2023-04-09T15:53:36;153.07;;;10.40;;
11092;SDS011;5600;50.864;6.102;2023-04-09T15:56:36;126.63;;;9.13;;
11092;SDS011;5600;50.864;6.102;2023-04-09T15:59:39;110.47;;;8.35;;
11092;SDS011;5600;50.864;6.102;2023-04-09T16:02:40;115.03;;;8.55;;
11092;SDS011;5600;50.864;6.102;2023-04-09T16:05:41;73.90;;;6.82;;
11092;SDS011;5600;50.864;6.102;2023-04-09T16:08:42;111.35;;;8.20;;
11092;SDS011;5600;50.864;6.102;2023-04-09T16:11:43;45.97;;;5.28;;
11092;SDS011;5600;50.864;6.102;2023-04-09T16:14:45;47.17;;;5.50;;
11092;SDS011;5600;50.864;6.102;2023-04-09T16:17:46;101.10;;;7.70;;
11092;SDS011;5600;50.864;6.102;2023-04-09T16:20:50;63.17;;;6.00;;
11092;SDS011;5600;50.864;6.102;2023-04-09T16:23:51;66.55;;;6.53;;
11092;SDS011;5600;50.864;6.102;2023-04-09T16:26:52;88.93;;;7.25;;
11092;SDS011;5600;50.864;6.102;2023-04-09T16:29:53;75.97;;;6.95;;
11092;SDS011;5600;50.864;6.102;2023-04-09T16:32:55;117.57;;;8.98;;
11092;SDS011;5600;50.864;6.102;2023-04-09T16:35:56;103.75;;;8.18;;
11092;SDS011;5600;50.864;6.102;2023-04-09T16:38:57;134.95;;;9.25;;
11092;SDS011;5600;50.864;6.102;2023-04-09T16:41:58;87.65;;;7.55;;
11092;SDS011;5600;50.864;6.102;2023-04-09T16:44:58;70.15;;;6.88;;
11092;SDS011;5600;50.864;6.102;2023-04-09T16:48:03;60.08;;;6.18;;
11092;SDS011;5600;50.864;6.102;2023-04-09T16:51:09;106.18;;;7.95;;
11092;SDS011;5600;50.864;6.102;2023-04-09T16:54:10;71.68;;;6.68;;
11092;SDS011;5600;50.864;6.102;2023-04-09T16:57:11;58.80;;;5.85;;
11092;SDS011;5600;50.864;6.102;2023-04-09T17:00:12;73.22;;;6.80;;
11092;SDS011;5600;50.864;6.102;2023-04-09T17:03:15;51.78;;;5.70;;
11092;SDS011;5600;50.864;6.102;2023-04-09T17:06:16;52.67;;;6.43;;
11092;SDS011;5600;50.864;6.102;2023-04-09T17:09:18;52.92;;;6.07;;
11092;SDS011;5600;50.864;6.102;2023-04-09T17:12:18;93.68;;;7.65;;
11092;SDS011;5600;50.864;6.102;2023-04-09T17:15:20;71.05;;;7.00;;
11092;SDS011;5600;50.864;6.102;2023-04-09T17:18:21;108.57;;;8.43;;
11092;SDS011;5600;50.864;6.102;2023-04-09T17:21:23;113.03;;;9.02;;
11092;SDS011;5600;50.864;6.102;2023-04-09T17:24:24;93.70;;;8.07;;
11092;SDS011;5600;50.864;6.102;2023-04-09T17:27:25;74.53;;;7.03;;
11092;SDS011;5600;50.864;6.102;2023-04-09T17:30:26;70.30;;;6.68;;
11092;SDS011;5600;50.864;6.102;2023-04-09T17:33:27;98.63;;;8.00;;
11092;SDS011;5600;50.864;6.102;2023-04-09T17:36:28;76.93;;;7.25;;
11092;SDS011;5600;50.864;6.102;2023-04-09T17:39:30;82.82;;;7.15;;
11092;SDS011;5600;50.864;6.102;2023-04-09T17:42:31;96.45;;;7.93;;
11092;SDS011;5600;50.864;6.102;2023-04-09T17:45:33;74.15;;;7.00;;
11092;SDS011;5600;50.864;6.102;2023-04-09T17:48:37;96.43;;;8.05;;
11092;SDS011;5600;50.864;6.102;2023-04-09T17:51:38;85.18;;;7.45;;
11092;SDS011;5600;50.864;6.102;2023-04-09T17:54:39;67.82;;;6.75;;
11092;SDS011;5600;50.864;6.102;2023-04-09T17:57:39;48.33;;;5.75;;
11092;SDS011;5600;50.864;6.102;2023-04-09T18:00:41;92.53;;;7.40;;
11092;SDS011;5600;50.864;6.102;2023-04-09T18:03:43;62.03;;;6.33;;
11092;SDS011;5600;50.864;6.102;2023-04-09T18:06:47;82.07;;;7.23;;
11092;SDS011;5600;50.864;6.102;2023-04-09T18:09:48;64.93;;;6.27;;
11092;SDS011;5600;50.864;6.102;2023-04-09T18:12:50;89.27;;;7.90;;
11092;SDS011;5600;50.864;6.102;2023-04-09T18:15:52;56.07;;;6.60;;
11092;SDS011;5600;50.864;6.102;2023-04-09T18:18:53;55.03;;;6.00;;